Time;durP1;ratioP1;P1;durP2;ratioP2;P2;SDS_P1;SDS_P2;PMS_P1;PMS_P2;Temp;Humidity;BMP_temperature;BMP_pressure;BME280_temperature;BME280_humidity;BME280_pressure;Samples;Min_cycle;Max_cycle;Signal;HPM_P1;HPM_P2
2023/08/13 00:00:22;;;;;;;0.10;0.10;;;;;;;;;;6191499;23;20019;-95
2023/08/13 00:02:48;;;;;;;0.15;0.15;;;;;;;;;;6192749;23;20012;-96
2023/08/13 00:05:15;;;;;;;0.10;0.10;;;;;;;;;;6193477;23;20070;-96
2023/08/13 00:07:41;;;;;;;0.20;0.20;;;;;;;;;;6194086;23;20017;-96
2023/08/13 00:10:10;;;;;;;0.15;0.15;;;;;;;;;;6221768;22;20017;-94
2023/08/13 00:12:37;;;;;;;0.10;0.10;;;;;;;;;;6193498;23;20016;-96
2023/08/13 00:15:04;;;;;;;0.20;0.20;;;;;;;;;;6193679;23;20067;-94
2023/08/13 00:17:30;;;;;;;0.20;0.20;;;;;;;;;;6194434;23;20081;-95
2023/08/13 00:19:56;;;;;;;0.20;0.20;;;;;;;;;;6192729;23;20013;-95
2023/08/13 00:22:22;;;;;;;0.20;0.20;;;;;;;;;;6192977;23;20091;-94
2023/08/13 00:24:55;;;;;;;0.20;0.20;;;;;;;;;;6192461;23;20017;-95
2023/08/13 00:27:21;;;;;;;0.20;0.20;;;;;;;;;;6191482;23;20031;-94
2023/08/13 00:29:47;;;;;;;0.20;0.20;;;;;;;;;;6192872;23;20473;-94
2023/08/13 00:32:13;;;;;;;0.10;0.10;;;;;;;;;;6191363;23;20096;-93
2023/08/13 00:34:39;;;;;;;0.20;0.20;;;;;;;;;;6191809;23;20012;-96
2023/08/13 00:37:05;;;;;;;0.10;0.10;;;;;;;;;;6191413;23;20024;-95
2023/08/13 00:39:31;;;;;;;0.22;0.22;;;;;;;;;;6190538;23;20017;-91
2023/08/13 00:41:57;;;;;;;0.10;0.10;;;;;;;;;;6190027;23;20048;-94
2023/08/13 00:44:23;;;;;;;0.00;0.00;;;;;;;;;;6192624;23;20021;-94
2023/08/13 00:46:50;;;;;;;0.10;0.10;;;;;;;;;;6191751;23;20016;-95
2023/08/13 00:49:16;;;;;;;0.20;0.20;;;;;;;;;;6193186;23;20027;-95
2023/08/13 00:51:43;;;;;;;0.20;0.20;;;;;;;;;;6190552;23;20153;-93
2023/08/13 00:54:09;;;;;;;0.10;0.10;;;;;;;;;;6192567;23;20020;-94
2023/08/13 00:56:39;;;;;;;0.10;0.10;;;;;;;;;;6192302;23;20017;-95
2023/08/13 00:59:05;;;;;;;0.10;0.10;;;;;;;;;;6191339;23;20072;-93
2023/08/13 01:01:31;;;;;;;0.10;0.10;;;;;;;;;;6189465;23;20061;-91
2023/08/13 01:03:57;;;;;;;0.10;0.10;;;;;;;;;;6189669;23;20013;-94
2023/08/13 01:06:42;;;;;;;0.05;0.05;;;;;;;;;;6190130;23;20073;-93
2023/08/13 01:09:22;;;;;;;0.10;0.10;;;;;;;;;;6189230;23;20451;-94
2023/08/13 01:11:58;;;;;;;0.20;0.20;;;;;;;;;;6189441;23;20025;-94
2023/08/13 01:14:28;;;;;;;0.10;0.10;;;;;;;;;;6190299;22;20020;-94
2023/08/13 01:16:56;;;;;;;0.28;0.28;;;;;;;;;;6190746;23;20027;-95
2023/08/13 01:19:23;;;;;;;0.10;0.10;;;;;;;;;;6190515;23;20017;-95
2023/08/13 01:21:49;;;;;;;0.10;0.10;;;;;;;;;;6191727;23;20452;-93
2023/08/13 01:24:15;;;;;;;0.08;0.08;;;;;;;;;;6191792;23;20032;-94
2023/08/13 01:27:01;;;;;;;0.10;0.10;;;;;;;;;;6191094;23;20028;-93
2023/08/13 01:29:33;;;;;;;0.20;0.20;;;;;;;;;;6189960;23;20023;-94
2023/08/13 01:32:01;;;;;;;0.10;0.10;;;;;;;;;;6190723;23;20016;-94
2023/08/13 01:34:27;;;;;;;0.10;0.10;;;;;;;;;;6215447;23;20099;-94
2023/08/13 01:36:53;;;;;;;0.10;0.10;;;;;;;;;;6190962;23;20048;-92
2023/08/13 01:39:19;;;;;;;0.10;0.10;;;;;;;;;;6189705;23;20042;-92
2023/08/13 01:41:51;;;;;;;0.10;0.10;;;;;;;;;;6189142;23;20017;-94
2023/08/13 01:44:17;;;;;;;0.10;0.10;;;;;;;;;;6193226;23;20070;-96
2023/08/13 01:46:43;;;;;;;0.10;0.10;;;;;;;;;;6219445;23;20021;-95
2023/08/13 01:49:12;;;;;;;0.20;0.20;;;;;;;;;;6218541;22;20047;-95
2023/08/13 01:51:38;;;;;;;0.20;0.20;;;;;;;;;;6194060;23;20016;-94
2023/08/13 01:54:05;;;;;;;0.10;0.10;;;;;;;;;;6194755;23;20031;-95
2023/08/13 01:56:31;;;;;;;0.10;0.10;;;;;;;;;;6193258;23;20051;-92
2023/08/13 01:58:57;;;;;;;0.13;0.13;;;;;;;;;;6192546;23;20023;-94
2023/08/13 02:01:23;;;;;;;0.10;0.10;;;;;;;;;;6192883;23;20048;-94
2023/08/13 02:03:49;;;;;;;0.20;0.20;;;;;;;;;;6193622;23;20021;-94
2023/08/13 02:06:16;;;;;;;0.10;0.10;;;;;;;;;;6193795;23;20021;-95
2023/08/13 02:08:42;;;;;;;0.10;0.10;;;;;;;;;;6191409;23;20028;-95
2023/08/13 02:11:08;;;;;;;0.10;0.10;;;;;;;;;;6191471;23;20024;-95
2023/08/13 02:13:34;;;;;;;0.10;0.10;;;;;;;;;;6191309;22;20055;-95
2023/08/13 02:16:04;;;;;;;0.10;0.10;;;;;;;;;;6192523;23;20046;-94
2023/08/13 02:18:30;;;;;;;0.10;0.10;;;;;;;;;;6192557;23;20016;-95
2023/08/13 02:20:56;;;;;;;0.03;0.03;;;;;;;;;;6193827;23;20020;-93
2023/08/13 02:23:22;;;;;;;0.03;0.03;;;;;;;;;;6190320;23;20389;-94
2023/08/13 02:25:50;;;;;;;0.10;0.10;;;;;;;;;;6190988;23;20063;-95
2023/08/13 02:28:16;;;;;;;0.20;0.20;;;;;;;;;;6193274;23;20021;-95
2023/08/13 02:30:42;;;;;;;0.10;0.10;;;;;;;;;;6193332;23;20017;-94
2023/08/13 02:33:08;;;;;;;0.10;0.10;;;;;;;;;;6193779;23;20352;-96
2023/08/13 02:35:35;;;;;;;0.15;0.15;;;;;;;;;;6192993;23;20017;-95
2023/08/13 02:38:01;;;;;;;0.15;0.15;;;;;;;;;;6191251;23;20023;-93
2023/08/13 02:40:27;;;;;;;0.10;0.10;;;;;;;;;;6190799;23;20017;-95
2023/08/13 02:42:53;;;;;;;0.00;0.00;;;;;;;;;;6191550;23;20561;-95
2023/08/13 02:45:19;;;;;;;0.17;0.17;;;;;;;;;;6194412;23;20025;-94
2023/08/13 02:47:45;;;;;;;0.10;0.10;;;;;;;;;;6192516;23;20045;-93
2023/08/13 02:50:11;;;;;;;0.00;0.00;;;;;;;;;;6192850;23;20020;-96
2023/08/13 02:52:38;;;;;;;0.10;0.10;;;;;;;;;;6192810;23;20091;-95
2023/08/13 02:55:04;;;;;;;0.15;0.15;;;;;;;;;;6297474;22;20020;-96
2023/08/13 02:57:30;;;;;;;0.10;0.10;;;;;;;;;;6191305;23;20030;-94
2023/08/13 02:59:56;;;;;;;0.10;0.10;;;;;;;;;;6190018;23;20040;-91
2023/08/13 03:02:22;;;;;;;0.00;0.00;;;;;;;;;;6190505;23;20340;-94
2023/08/13 03:04:48;;;;;;;0.20;0.20;;;;;;;;;;6191875;23;20439;-95
2023/08/13 03:07:14;;;;;;;0.05;0.05;;;;;;;;;;6191668;23;20091;-93
2023/08/13 03:09:40;;;;;;;0.10;0.10;;;;;;;;;;6190703;23;20020;-95
2023/08/13 03:12:07;;;;;;;0.10;0.10;;;;;;;;;;6191291;23;20041;-94
2023/08/13 03:14:33;;;;;;;0.10;0.10;;;;;;;;;;6191149;22;20046;-93
2023/08/13 03:16:59;;;;;;;0.10;0.10;;;;;;;;;;6191017;23;20042;-91
2023/08/13 03:19:25;;;;;;;0.10;0.10;;;;;;;;;;6191812;23;20482;-93
2023/08/13 03:21:51;;;;;;;0.10;0.10;;;;;;;;;;6191203;23;20095;-94
2023/08/13 03:24:17;;;;;;;0.10;0.10;;;;;;;;;;6190325;23;20021;-92
2023/08/13 03:26:43;;;;;;;0.10;0.10;;;;;;;;;;6191462;23;20023;-94
2023/08/13 03:29:09;;;;;;;0.10;0.10;;;;;;;;;;6190962;23;20021;-94
2023/08/13 03:31:36;;;;;;;0.13;0.13;;;;;;;;;;6166412;23;20029;-93
2023/08/13 03:34:02;;;;;;;0.10;0.10;;;;;;;;;;6191588;23;20027;-94
2023/08/13 03:36:29;;;;;;;0.10;0.10;;;;;;;;;;6191637;23;20040;-93
2023/08/13 03:38:55;;;;;;;0.10;0.10;;;;;;;;;;6191655;23;20466;-92
2023/08/13 03:41:21;;;;;;;0.20;0.20;;;;;;;;;;6191015;23;20017;-94
2023/08/13 03:43:47;;;;;;;0.10;0.10;;;;;;;;;;6191038;23;20065;-96
2023/08/13 03:46:13;;;;;;;0.10;0.10;;;;;;;;;;6192294;23;20077;-95
2023/08/13 03:48:39;;;;;;;0.10;0.10;;;;;;;;;;6193484;23;20020;-95
2023/08/13 03:51:05;;;;;;;0.13;0.13;;;;;;;;;;6218611;23;20028;-94
2023/08/13 03:53:31;;;;;;;0.10;0.10;;;;;;;;;;6193732;23;20012;-94
2023/08/13 03:55:57;;;;;;;0.20;0.20;;;;;;;;;;6193135;23;20017;-94
2023/08/13 03:58:25;;;;;;;0.10;0.10;;;;;;;;;;6191155;23;20048;-93
2023/08/13 04:00:51;;;;;;;0.10;0.10;;;;;;;;;;6192048;23;20028;-96
2023/08/13 04:03:17;;;;;;;0.10;0.10;;;;;;;;;;6191718;23;20016;-96
2023/08/13 04:05:43;;;;;;;0.13;0.13;;;;;;;;;;6192512;23;20013;-94
2023/08/13 04:08:09;;;;;;;0.20;0.20;;;;;;;;;;6192137;23;20016;-93
2023/08/13 04:10:35;;;;;;;0.10;0.10;;;;;;;;;;6191481;23;20016;-94
2023/08/13 04:13:01;;;;;;;0.00;0.00;;;;;;;;;;6190181;22;20070;-95
2023/08/13 04:15:28;;;;;;;0.00;0.00;;;;;;;;;;6191164;23;20329;-94
2023/08/13 04:17:54;;;;;;;0.10;0.10;;;;;;;;;;6191971;23;20023;-93
2023/08/13 04:20:20;;;;;;;0.20;0.20;;;;;;;;;;6192368;23;20027;-94
2023/08/13 04:22:46;;;;;;;0.00;0.00;;;;;;;;;;6190897;23;20019;-95
2023/08/13 04:25:12;;;;;;;0.00;0.00;;;;;;;;;;6192387;23;20108;-94
2023/08/13 04:27:53;;;;;;;0.10;0.10;;;;;;;;;;6192602;23;20042;-96
2023/08/13 04:30:19;;;;;;;0.20;0.20;;;;;;;;;;6193001;23;20020;-95
2023/08/13 04:32:53;;;;;;;0.10;0.10;;;;;;;;;;6190760;23;20017;-94
2023/08/13 04:35:19;;;;;;;0.08;0.08;;;;;;;;;;6192447;23;20021;-96
2023/08/13 04:37:45;;;;;;;0.10;0.10;;;;;;;;;;6190675;23;20087;-95
2023/08/13 04:40:11;;;;;;;0.03;0.03;;;;;;;;;;6190656;23;20316;-93
2023/08/13 04:42:37;;;;;;;0.00;0.00;;;;;;;;;;6190973;23;20023;-94
2023/08/13 04:45:03;;;;;;;0.10;0.10;;;;;;;;;;6191268;23;20063;-94
2023/08/13 04:47:29;;;;;;;0.15;0.15;;;;;;;;;;6192727;23;20021;-92
2023/08/13 04:49:55;;;;;;;0.10;0.10;;;;;;;;;;6191458;23;20016;-95
2023/08/13 04:52:21;;;;;;;0.20;0.20;;;;;;;;;;6191318;23;20074;-96
2023/08/13 04:54:48;;;;;;;0.10;0.10;;;;;;;;;;6191203;23;20020;-95
2023/08/13 04:57:14;;;;;;;0.10;0.10;;;;;;;;;;6191287;23;20012;-95
2023/08/13 04:59:40;;;;;;;0.15;0.15;;;;;;;;;;6190661;23;20020;-94
2023/08/13 05:02:06;;;;;;;0.10;0.10;;;;;;;;;;6190830;23;20019;-93
2023/08/13 05:04:32;;;;;;;0.10;0.10;;;;;;;;;;6191340;23;20099;-94
2023/08/13 05:06:58;;;;;;;0.20;0.20;;;;;;;;;;6190175;23;20017;-95
2023/08/13 05:09:24;;;;;;;0.13;0.13;;;;;;;;;;6192048;23;20052;-95
2023/08/13 05:11:50;;;;;;;0.10;0.10;;;;;;;;;;6191970;23;20456;-95
2023/08/13 05:14:16;;;;;;;0.20;0.20;;;;;;;;;;6191790;22;20043;-94
2023/08/13 05:16:42;;;;;;;0.10;0.10;;;;;;;;;;6192230;23;20012;-94
2023/08/13 05:19:08;;;;;;;0.10;0.10;;;;;;;;;;6190760;23;20073;-94
2023/08/13 05:21:34;;;;;;;0.10;0.10;;;;;;;;;;6190852;23;20017;-95
2023/08/13 05:24:00;;;;;;;0.20;0.20;;;;;;;;;;6193143;23;20048;-92
2023/08/13 05:26:26;;;;;;;0.10;0.10;;;;;;;;;;6192761;23;20020;-93
2023/08/13 05:28:52;;;;;;;0.10;0.10;;;;;;;;;;6190952;23;20028;-95
2023/08/13 05:31:18;;;;;;;0.20;0.20;;;;;;;;;;6191948;23;20097;-95
2023/08/13 05:33:44;;;;;;;0.10;0.10;;;;;;;;;;6192016;23;20020;-95
2023/08/13 05:36:10;;;;;;;0.10;0.10;;;;;;;;;;6192562;23;20023;-93
2023/08/13 05:38:36;;;;;;;0.20;0.20;;;;;;;;;;6216091;23;20012;-94
2023/08/13 05:41:02;;;;;;;0.28;0.28;;;;;;;;;;6191085;23;20051;-93
2023/08/13 05:43:28;;;;;;;0.20;0.20;;;;;;;;;;6190425;23;20032;-94
2023/08/13 05:45:55;;;;;;;0.20;0.20;;;;;;;;;;6191938;23;20017;-94
2023/08/13 05:48:21;;;;;;;0.20;0.20;;;;;;;;;;6193467;23;20379;-94
2023/08/13 05:50:47;;;;;;;0.08;0.08;;;;;;;;;;6192563;23;20331;-94
2023/08/13 05:53:13;;;;;;;0.00;0.00;;;;;;;;;;6191937;23;20021;-94
2023/08/13 05:55:39;;;;;;;0.20;0.20;;;;;;;;;;6192315;23;20100;-92
2023/08/13 05:58:08;;;;;;;0.10;0.10;;;;;;;;;;6191991;23;20119;-94
2023/08/13 06:00:34;;;;;;;0.10;0.10;;;;;;;;;;6216790;23;20016;-93
2023/08/13 06:03:00;;;;;;;0.10;0.10;;;;;;;;;;6191358;23;20052;-93
2023/08/13 06:05:26;;;;;;;0.10;0.10;;;;;;;;;;6191935;23;20042;-94
2023/08/13 06:07:52;;;;;;;0.10;0.10;;;;;;;;;;6191231;23;20016;-95
2023/08/13 06:10:18;;;;;;;0.13;0.13;;;;;;;;;;6190675;23;20051;-95
2023/08/13 06:12:44;;;;;;;0.13;0.13;;;;;;;;;;6190647;22;20021;-92
2023/08/13 06:15:13;;;;;;;0.15;0.15;;;;;;;;;;6192396;23;20027;-95
2023/08/13 06:17:42;;;;;;;0.10;0.10;;;;;;;;;;6191136;23;20040;-92
2023/08/13 06:20:10;;;;;;;0.10;0.10;;;;;;;;;;6192834;23;20017;-94
2023/08/13 06:22:36;;;;;;;0.20;0.20;;;;;;;;;;6193280;23;20017;-96
2023/08/13 06:25:02;;;;;;;0.08;0.08;;;;;;;;;;6193923;23;20035;-94
2023/08/13 06:27:28;;;;;;;0.10;0.10;;;;;;;;;;6297025;22;20021;-95
2023/08/13 06:29:54;;;;;;;0.10;0.10;;;;;;;;;;6192235;23;20455;-95
2023/08/13 06:32:20;;;;;;;0.10;0.10;;;;;;;;;;6191608;23;20072;-92
2023/08/13 06:34:46;;;;;;;0.10;0.10;;;;;;;;;;6191829;23;20016;-93
2023/08/13 06:37:12;;;;;;;0.10;0.10;;;;;;;;;;6295364;22;20017;-92
2023/08/13 06:39:38;;;;;;;0.10;0.10;;;;;;;;;;6191611;23;20013;-92
2023/08/13 06:42:05;;;;;;;0.20;0.20;;;;;;;;;;6191180;23;20082;-91
2023/08/13 06:44:31;;;;;;;0.10;0.10;;;;;;;;;;6191785;23;20355;-93
2023/08/13 06:46:57;;;;;;;0.10;0.10;;;;;;;;;;6192591;23;20100;-95
2023/08/13 06:49:23;;;;;;;0.10;0.10;;;;;;;;;;6193459;23;20069;-95
2023/08/13 06:51:49;;;;;;;0.10;0.10;;;;;;;;;;6192614;23;20125;-93
2023/08/13 06:54:15;;;;;;;0.10;0.10;;;;;;;;;;6190996;23;20020;-92
2023/08/13 06:56:41;;;;;;;0.10;0.10;;;;;;;;;;6189336;23;20020;-94
2023/08/13 06:59:07;;;;;;;0.05;0.05;;;;;;;;;;6191517;23;20017;-93
2023/08/13 07:01:33;;;;;;;0.10;0.10;;;;;;;;;;6191055;23;20016;-93
2023/08/13 07:03:59;;;;;;;0.10;0.10;;;;;;;;;;6216861;23;20038;-94
2023/08/13 07:06:25;;;;;;;0.03;0.03;;;;;;;;;;6192921;23;20024;-91
2023/08/13 07:08:51;;;;;;;0.10;0.10;;;;;;;;;;6191514;23;20017;-95
2023/08/13 07:11:18;;;;;;;0.10;0.10;;;;;;;;;;6191898;23;20017;-93
2023/08/13 07:13:44;;;;;;;0.20;0.20;;;;;;;;;;6190755;22;20017;-94
2023/08/13 07:16:13;;;;;;;0.10;0.10;;;;;;;;;;6192547;23;20020;-95
2023/08/13 07:18:39;;;;;;;0.17;0.17;;;;;;;;;;6192351;23;20017;-91
2023/08/13 07:21:06;;;;;;;0.10;0.10;;;;;;;;;;6192193;23;20016;-93
2023/08/13 07:23:32;;;;;;;0.22;0.22;;;;;;;;;;6192746;23;20024;-95
2023/08/13 07:25:58;;;;;;;0.10;0.10;;;;;;;;;;6193062;23;20490;-94
2023/08/13 07:28:24;;;;;;;0.00;0.00;;;;;;;;;;6191499;23;20056;-93
2023/08/13 07:30:50;;;;;;;0.10;0.10;;;;;;;;;;6191291;23;20016;-93
2023/08/13 07:33:16;;;;;;;0.13;0.13;;;;;;;;;;6191317;23;20021;-94
2023/08/13 07:35:42;;;;;;;0.20;0.20;;;;;;;;;;6192187;23;20347;-93
2023/08/13 07:38:08;;;;;;;0.00;0.00;;;;;;;;;;6191965;23;20339;-92
2023/08/13 07:40:34;;;;;;;0.10;0.10;;;;;;;;;;6191882;23;20066;-94
2023/08/13 07:43:01;;;;;;;0.10;0.10;;;;;;;;;;6192201;23;20463;-91
2023/08/13 07:45:46;;;;;;;0.10;0.10;;;;;;;;;;6191893;23;20027;-94
2023/08/13 07:48:12;;;;;;;0.00;0.00;;;;;;;;;;6192104;22;20020;-94
2023/08/13 07:50:39;;;;;;;0.20;0.20;;;;;;;;;;6191431;23;20027;-93
2023/08/13 07:53:06;;;;;;;0.10;0.10;;;;;;;;;;6192211;23;20034;-94
2023/08/13 07:55:32;;;;;;;0.10;0.10;;;;;;;;;;6191733;23;20075;-92
2023/08/13 07:57:58;;;;;;;0.10;0.10;;;;;;;;;;6192172;23;20066;-94
2023/08/13 08:00:24;;;;;;;0.10;0.10;;;;;;;;;;6190700;23;20016;-93
2023/08/13 08:02:50;;;;;;;0.00;0.00;;;;;;;;;;6190817;23;20096;-95
2023/08/13 08:05:17;;;;;;;0.22;0.22;;;;;;;;;;6192648;23;20567;-93
2023/08/13 08:07:43;;;;;;;0.00;0.00;;;;;;;;;;6191840;23;20023;-93
2023/08/13 08:10:09;;;;;;;0.10;0.10;;;;;;;;;;6191500;23;20017;-92
2023/08/13 08:12:35;;;;;;;0.10;0.10;;;;;;;;;;6190647;23;20070;-93
2023/08/13 08:15:02;;;;;;;0.20;0.20;;;;;;;;;;6191311;22;20042;-92
2023/08/13 08:17:31;;;;;;;0.00;0.00;;;;;;;;;;6197603;23;20020;-94
2023/08/13 08:19:59;;;;;;;0.00;0.00;;;;;;;;;;6194341;23;20013;-89
2023/08/13 08:22:25;;;;;;;0.05;0.05;;;;;;;;;;6185726;23;20385;-90
2023/08/13 08:24:51;;;;;;;0.10;0.10;;;;;;;;;;6185441;23;20080;-91
2023/08/13 08:27:17;;;;;;;0.10;0.10;;;;;;;;;;6185816;23;20028;-90
2023/08/13 08:29:44;;;;;;;0.13;0.13;;;;;;;;;;6186239;23;20022;-91
2023/08/13 08:32:10;;;;;;;0.10;0.10;;;;;;;;;;6211955;23;20070;-90
2023/08/13 08:34:36;;;;;;;0.00;0.00;;;;;;;;;;6185966;23;20099;-90
2023/08/13 08:37:03;;;;;;;0.10;0.10;;;;;;;;;;6186376;23;20017;-91
2023/08/13 08:39:29;;;;;;;0.00;0.00;;;;;;;;;;6186620;23;20470;-90
2023/08/13 08:42:03;;;;;;;0.00;0.00;;;;;;;;;;6185422;23;20095;-90
2023/08/13 08:44:29;;;;;;;0.10;0.10;;;;;;;;;;6186280;23;20414;-90
2023/08/13 08:46:57;;;;;;;0.10;0.10;;;;;;;;;;6211437;23;20021;-90
2023/08/13 08:49:23;;;;;;;0.15;0.15;;;;;;;;;;6186565;23;20020;-90
2023/08/13 08:51:49;;;;;;;0.20;0.20;;;;;;;;;;6186363;23;20403;-91
2023/08/13 08:54:16;;;;;;;0.10;0.10;;;;;;;;;;6186132;23;20438;-91
2023/08/13 08:56:42;;;;;;;0.00;0.00;;;;;;;;;;6289690;22;20040;-91
2023/08/13 08:59:08;;;;;;;0.17;0.17;;;;;;;;;;6185818;23;20121;-92
2023/08/13 09:01:34;;;;;;;0.10;0.10;;;;;;;;;;6185550;23;20016;-89
2023/08/13 09:07:30;;;;;;;0.00;0.00;;;;;;;;;;6222011;23;20016;-90
2023/08/13 09:09:57;;;;;;;0.10;0.10;;;;;;;;;;6185105;23;20573;-90
2023/08/13 09:12:23;;;;;;;0.10;0.10;;;;;;;;;;6185514;23;20016;-92
2023/08/13 09:14:52;;;;;;;0.10;0.10;;;;;;;;;;6186297;22;20017;-90
2023/08/13 09:17:19;;;;;;;0.10;0.10;;;;;;;;;;6186762;23;20017;-90
2023/08/13 09:19:46;;;;;;;0.10;0.10;;;;;;;;;;6186127;23;20099;-93
2023/08/13 09:22:16;;;;;;;0.10;0.10;;;;;;;;;;6212182;23;20009;-91
2023/08/13 09:24:42;;;;;;;0.00;0.00;;;;;;;;;;6186511;23;20021;-90
2023/08/13 09:27:09;;;;;;;0.00;0.00;;;;;;;;;;6186064;23;20017;-91
2023/08/13 09:29:36;;;;;;;0.00;0.00;;;;;;;;;;6186132;23;20021;-90
2023/08/13 09:32:03;;;;;;;0.00;0.00;;;;;;;;;;6186783;23;20046;-90
2023/08/13 09:34:30;;;;;;;0.10;0.10;;;;;;;;;;6187060;23;20013;-92
2023/08/13 09:36:57;;;;;;;0.05;0.05;;;;;;;;;;6186443;23;20414;-90
2023/08/13 09:39:33;;;;;;;0.20;0.20;;;;;;;;;;6186472;23;20017;-92
2023/08/13 09:42:01;;;;;;;0.10;0.10;;;;;;;;;;6186970;23;20024;-93
2023/08/13 09:44:28;;;;;;;0.10;0.10;;;;;;;;;;6187583;22;20024;-92
2023/08/13 09:46:55;;;;;;;0.00;0.00;;;;;;;;;;6186433;23;20039;-91
2023/08/13 09:49:27;;;;;;;0.17;0.17;;;;;;;;;;6186334;23;20029;-91
2023/08/13 09:51:56;;;;;;;0.15;0.15;;;;;;;;;;6189314;23;20048;-90
2023/08/13 09:54:41;;;;;;;0.10;0.10;;;;;;;;;;6190755;23;20076;-91
2023/08/13 09:57:09;;;;;;;0.10;0.10;;;;;;;;;;6185103;23;20091;-92
2023/08/13 09:59:36;;;;;;;0.10;0.10;;;;;;;;;;6185843;23;20459;-90
2023/08/13 10:02:07;;;;;;;0.00;0.00;;;;;;;;;;6186899;23;20017;-91
2023/08/13 10:04:34;;;;;;;0.10;0.10;;;;;;;;;;6184979;23;20056;-89
2023/08/13 10:07:01;;;;;;;0.05;0.05;;;;;;;;;;6186473;23;20447;-92
2023/08/13 10:09:28;;;;;;;0.00;0.00;;;;;;;;;;6187292;23;20095;-92
2023/08/13 10:11:55;;;;;;;0.00;0.00;;;;;;;;;;6187332;23;20507;-92
2023/08/13 10:14:22;;;;;;;0.00;0.00;;;;;;;;;;6185854;22;20025;-90
2023/08/13 10:16:48;;;;;;;0.10;0.10;;;;;;;;;;6211103;23;20020;-90
2023/08/13 10:19:15;;;;;;;0.00;0.00;;;;;;;;;;6211398;23;20012;-91
2023/08/13 10:21:41;;;;;;;0.00;0.00;;;;;;;;;;6187622;23;20016;-92
2023/08/13 10:24:11;;;;;;;0.10;0.10;;;;;;;;;;6187749;23;20069;-92
2023/08/13 10:26:41;;;;;;;0.00;0.00;;;;;;;;;;6187568;23;20016;-91
2023/08/13 10:29:15;;;;;;;0.10;0.10;;;;;;;;;;6187940;23;20017;-91
2023/08/13 10:31:48;;;;;;;0.08;0.08;;;;;;;;;;6187985;23;20569;-89
2023/08/13 10:34:14;;;;;;;0.03;0.03;;;;;;;;;;6187369;23;20023;-90
2023/08/13 10:36:45;;;;;;;0.08;0.08;;;;;;;;;;6186520;23;20455;-89
2023/08/13 10:39:30;;;;;;;0.10;0.10;;;;;;;;;;6187078;23;20456;-92
2023/08/13 10:41:56;;;;;;;0.05;0.05;;;;;;;;;;6186983;23;20013;-91
2023/08/13 10:44:31;;;;;;;0.20;0.20;;;;;;;;;;6187406;23;20056;-91
2023/08/13 10:46:57;;;;;;;0.08;0.08;;;;;;;;;;6187320;23;20017;-90
2023/08/13 10:49:25;;;;;;;0.00;0.00;;;;;;;;;;6187454;23;20021;-90
2023/08/13 10:51:51;;;;;;;0.00;0.00;;;;;;;;;;6186221;23;20044;-91
2023/08/13 10:54:17;;;;;;;0.10;0.10;;;;;;;;;;6188285;23;20056;-93
2023/08/13 10:56:47;;;;;;;0.00;0.00;;;;;;;;;;6186548;23;20021;-90
2023/08/13 10:59:13;;;;;;;0.13;0.13;;;;;;;;;;6185520;23;20024;-89
2023/08/13 11:01:58;;;;;;;0.10;0.10;;;;;;;;;;6185906;23;20080;-90
2023/08/13 11:04:24;;;;;;;0.10;0.10;;;;;;;;;;6186184;23;20017;-92
2023/08/13 11:06:50;;;;;;;0.00;0.00;;;;;;;;;;6186520;23;20020;-91
2023/08/13 11:09:17;;;;;;;0.10;0.10;;;;;;;;;;6188849;23;20016;-89
2023/08/13 11:11:43;;;;;;;0.00;0.00;;;;;;;;;;6186912;23;20016;-90
2023/08/13 11:14:09;;;;;;;0.00;0.00;;;;;;;;;;6211610;22;20044;-89
2023/08/13 11:16:35;;;;;;;0.00;0.00;;;;;;;;;;6186441;23;20027;-92
2023/08/13 11:19:07;;;;;;;0.00;0.00;;;;;;;;;;6190468;23;20099;-92
2023/08/13 11:21:33;;;;;;;0.10;0.10;;;;;;;;;;6187182;23;20016;-90
2023/08/13 11:24:00;;;;;;;0.00;0.00;;;;;;;;;;6212413;23;20146;-91
2023/08/13 11:26:27;;;;;;;0.00;0.00;;;;;;;;;;6214381;23;20021;-91
2023/08/13 11:28:57;;;;;;;0.03;0.03;;;;;;;;;;6187459;23;20025;-89
2023/08/13 11:31:23;;;;;;;0.10;0.10;;;;;;;;;;6187237;23;20021;-89
2023/08/13 11:33:49;;;;;;;0.00;0.00;;;;;;;;;;6188014;23;20060;-92
2023/08/13 11:36:16;;;;;;;0.10;0.10;;;;;;;;;;6188593;23;20021;-91
2023/08/13 11:38:42;;;;;;;0.10;0.10;;;;;;;;;;6212291;23;20020;-91
2023/08/13 11:41:15;;;;;;;0.10;0.10;;;;;;;;;;6187333;23;20052;-90
2023/08/13 11:43:41;;;;;;;0.10;0.10;;;;;;;;;;6212254;23;20052;-90
2023/08/13 11:46:08;;;;;;;0.10;0.10;;;;;;;;;;6188100;23;20027;-92
2023/08/13 11:48:37;;;;;;;0.00;0.00;;;;;;;;;;6188013;23;20485;-89
2023/08/13 11:51:12;;;;;;;0.10;0.10;;;;;;;;;;6189423;23;20056;-90
2023/08/13 11:53:42;;;;;;;0.00;0.00;;;;;;;;;;6188248;23;20016;-91
2023/08/13 11:56:08;;;;;;;0.08;0.08;;;;;;;;;;6189016;23;20012;-92
2023/08/13 11:58:34;;;;;;;0.10;0.10;;;;;;;;;;6188470;23;20073;-89
2023/08/13 12:01:00;;;;;;;0.03;0.03;;;;;;;;;;6188050;23;20012;-91
2023/08/13 12:03:34;;;;;;;0.00;0.00;;;;;;;;;;6187506;23;20017;-88
2023/08/13 12:06:00;;;;;;;0.00;0.00;;;;;;;;;;6212756;23;20016;-90
2023/08/13 12:08:30;;;;;;;0.10;0.10;;;;;;;;;;6188700;23;20040;-91
2023/08/13 12:11:00;;;;;;;0.00;0.00;;;;;;;;;;6187854;23;20063;-90
2023/08/13 12:13:27;;;;;;;0.10;0.10;;;;;;;;;;6187144;22;20506;-90
2023/08/13 12:15:53;;;;;;;0.08;0.08;;;;;;;;;;6188149;23;20070;-90
2023/08/13 12:18:20;;;;;;;0.00;0.00;;;;;;;;;;6187403;23;20013;-90
2023/08/13 12:20:46;;;;;;;0.10;0.10;;;;;;;;;;6187419;23;20031;-88
2023/08/13 12:23:12;;;;;;;0.10;0.10;;;;;;;;;;6211809;23;20106;-93
2023/08/13 12:25:38;;;;;;;0.00;0.00;;;;;;;;;;6187898;23;20099;-91
2023/08/13 12:28:04;;;;;;;0.00;0.00;;;;;;;;;;6187038;23;20576;-90
2023/08/13 12:30:30;;;;;;;0.10;0.10;;;;;;;;;;6187877;23;20016;-91
2023/08/13 12:32:56;;;;;;;0.03;0.03;;;;;;;;;;6187478;23;20081;-92
2023/08/13 12:35:22;;;;;;;0.03;0.03;;;;;;;;;;6187773;23;20026;-90
2023/08/13 12:37:48;;;;;;;0.00;0.00;;;;;;;;;;6186956;23;20495;-90
2023/08/13 12:40:16;;;;;;;0.10;0.10;;;;;;;;;;6187271;23;20012;-92
2023/08/13 12:42:42;;;;;;;0.03;0.03;;;;;;;;;;6187196;23;20462;-90
2023/08/13 12:45:08;;;;;;;0.05;0.05;;;;;;;;;;6187726;23;20339;-91
2023/08/13 12:47:36;;;;;;;0.10;0.10;;;;;;;;;;6187010;23;20024;-91
2023/08/13 12:50:03;;;;;;;0.10;0.10;;;;;;;;;;6186428;23;20073;-91
2023/08/13 12:52:29;;;;;;;0.00;0.00;;;;;;;;;;6187084;23;20020;-90
2023/08/13 12:54:55;;;;;;;0.10;0.10;;;;;;;;;;6187399;23;20560;-90
2023/08/13 12:57:21;;;;;;;0.32;0.32;;;;;;;;;;6212828;23;20451;-91
2023/08/13 12:59:47;;;;;;;0.10;0.10;;;;;;;;;;6185870;23;20024;-90
2023/08/13 13:02:14;;;;;;;0.10;0.10;;;;;;;;;;6187878;23;20012;-92
2023/08/13 13:04:40;;;;;;;0.03;0.03;;;;;;;;;;6291961;22;20027;-90
2023/08/13 13:07:06;;;;;;;0.20;0.20;;;;;;;;;;6187160;23;20071;-92
2023/08/13 13:09:32;;;;;;;0.00;0.00;;;;;;;;;;6187784;23;20071;-90
2023/08/13 13:11:58;;;;;;;0.10;0.10;;;;;;;;;;6213521;23;20459;-91
2023/08/13 13:14:25;;;;;;;0.00;0.00;;;;;;;;;;6187290;22;20017;-92
2023/08/13 13:16:51;;;;;;;0.10;0.10;;;;;;;;;;6188487;23;20020;-90
2023/08/13 13:19:18;;;;;;;0.10;0.10;;;;;;;;;;6187040;23;20018;-91
2023/08/13 13:21:44;;;;;;;0.03;0.03;;;;;;;;;;6187399;23;20463;-91
2023/08/13 13:24:10;;;;;;;0.10;0.10;;;;;;;;;;6213242;23;20414;-90
2023/08/13 13:26:37;;;;;;;0.10;0.10;;;;;;;;;;6186934;23;20440;-90
2023/08/13 13:29:03;;;;;;;0.17;0.17;;;;;;;;;;6187021;23;20024;-91
2023/08/13 13:31:29;;;;;;;0.10;0.10;;;;;;;;;;6187568;23;20020;-90
2023/08/13 13:33:55;;;;;;;0.10;0.10;;;;;;;;;;6188746;23;20024;-89
2023/08/13 13:36:22;;;;;;;0.00;0.00;;;;;;;;;;6186149;23;20017;-91
2023/08/13 13:38:48;;;;;;;0.00;0.00;;;;;;;;;;6186077;23;20024;-88
2023/08/13 13:41:14;;;;;;;0.10;0.10;;;;;;;;;;6186186;23;20017;-90
2023/08/13 13:43:40;;;;;;;0.00;0.00;;;;;;;;;;6187781;23;20021;-89
2023/08/13 13:46:07;;;;;;;0.05;0.05;;;;;;;;;;6187800;23;20095;-90
2023/08/13 13:48:33;;;;;;;0.10;0.10;;;;;;;;;;6188041;23;20100;-90
2023/08/13 13:50:59;;;;;;;0.00;0.00;;;;;;;;;;6187166;23;20164;-89
2023/08/13 13:53:26;;;;;;;0.03;0.03;;;;;;;;;;6187466;23;20348;-90
2023/08/13 13:55:52;;;;;;;0.00;0.00;;;;;;;;;;6188508;23;20017;-90
2023/08/13 13:58:18;;;;;;;0.10;0.10;;;;;;;;;;6189654;23;20217;-90
2023/08/13 14:00:45;;;;;;;0.00;0.00;;;;;;;;;;6187527;23;20012;-91
2023/08/13 14:03:11;;;;;;;0.00;0.00;;;;;;;;;;6187161;23;20055;-90
2023/08/13 14:05:37;;;;;;;0.03;0.03;;;;;;;;;;6212817;23;20024;-90
2023/08/13 14:08:03;;;;;;;0.00;0.00;;;;;;;;;;6212324;23;20027;-90
2023/08/13 14:10:29;;;;;;;0.10;0.10;;;;;;;;;;6188444;23;20109;-90
2023/08/13 14:12:55;;;;;;;0.10;0.10;;;;;;;;;;6188619;22;20021;-92
2023/08/13 14:15:21;;;;;;;0.05;0.05;;;;;;;;;;6187663;23;20024;-91
2023/08/13 14:17:47;;;;;;;0.10;0.10;;;;;;;;;;6187645;23;20496;-88
2023/08/13 14:20:13;;;;;;;0.10;0.10;;;;;;;;;;6187026;23;20019;-91
2023/08/13 14:22:39;;;;;;;0.10;0.10;;;;;;;;;;6187017;23;20023;-89
2023/08/13 14:25:06;;;;;;;0.00;0.00;;;;;;;;;;6188376;23;20028;-92
2023/08/13 14:27:32;;;;;;;0.03;0.03;;;;;;;;;;6188009;23;20333;-91
2023/08/13 14:29:59;;;;;;;0.10;0.10;;;;;;;;;;6188404;23;20027;-92
2023/08/13 14:32:27;;;;;;;0.15;0.15;;;;;;;;;;6187957;23;20021;-91
2023/08/13 14:34:53;;;;;;;0.10;0.10;;;;;;;;;;6187505;23;20017;-90
2023/08/13 14:37:19;;;;;;;0.03;0.03;;;;;;;;;;6187362;23;20021;-90
2023/08/13 14:39:45;;;;;;;0.10;0.10;;;;;;;;;;6188274;23;20105;-92
2023/08/13 14:42:13;;;;;;;0.00;0.00;;;;;;;;;;6188301;23;20391;-92
2023/08/13 14:44:39;;;;;;;0.10;0.10;;;;;;;;;;6213262;23;20021;-91